createdAt,value
2018-08-22T00:01:48.563Z,2.07
2018-08-22T00:04:17.504Z,2.43
2018-08-22T00:06:46.406Z,2.37
2018-08-22T00:09:15.545Z,2.33
2018-08-22T00:11:44.516Z,2.53
2018-08-22T00:14:13.374Z,2.23
2018-08-22T00:16:43.289Z,2.20
2018-08-22T00:19:12.204Z,2.23
2018-08-22T00:21:41.093Z,2.23
2018-08-22T00:24:09.981Z,2.30
2018-08-22T00:26:38.867Z,2.50
2018-08-22T00:29:07.831Z,2.20
2018-08-22T00:31:36.652Z,2.10
2018-08-22T00:34:05.600Z,2.60
2018-08-22T00:36:34.464Z,2.50
2018-08-22T00:39:03.785Z,2.70
2018-08-22T00:41:32.746Z,3.17
2018-08-22T00:44:01.594Z,2.87
2018-08-22T00:46:30.492Z,3.27
2018-08-22T00:48:59.411Z,2.70
2018-08-22T00:51:28.342Z,2.80
2018-08-22T00:53:57.298Z,2.53
2018-08-22T00:56:26.182Z,2.53
2018-08-22T00:58:55.091Z,2.70
2018-08-22T01:01:24.060Z,2.60
2018-08-22T01:03:52.946Z,2.57
2018-08-22T01:06:22.869Z,2.10
2018-08-22T01:08:51.762Z,2.47
2018-08-22T01:11:20.760Z,2.73
2018-08-22T01:13:49.662Z,2.53
2018-08-22T01:16:18.544Z,3.17
2018-08-22T01:18:47.441Z,3.00
2018-08-22T01:21:16.292Z,2.93
2018-08-22T01:23:45.199Z,2.90
2018-08-22T01:26:14.092Z,3.17
2018-08-22T01:28:44.039Z,3.23
2018-08-22T01:31:12.946Z,3.07
2018-08-22T01:33:41.927Z,2.93
2018-08-22T01:36:10.781Z,2.93
2018-08-22T01:38:39.688Z,3.30
2018-08-22T01:41:08.784Z,3.00
2018-08-22T01:43:37.710Z,3.00
2018-08-22T01:46:06.646Z,2.67
2018-08-22T01:48:35.559Z,2.80
2018-08-22T01:51:04.448Z,2.67
2018-08-22T01:53:33.487Z,2.90
2018-08-22T01:56:02.437Z,3.00
2018-08-22T01:58:31.341Z,3.00
2018-08-22T02:01:00.263Z,2.80
2018-08-22T02:03:29.212Z,2.90
2018-08-22T02:05:58.177Z,2.70
2018-08-22T02:08:27.035Z,2.80
2018-08-22T02:10:55.914Z,2.80
2018-08-22T02:13:25.009Z,3.00
2018-08-22T02:15:53.934Z,2.77
2018-08-22T02:18:22.821Z,2.67
2018-08-22T02:20:51.739Z,3.10
2018-08-22T02:23:20.632Z,2.73
2018-08-22T02:25:49.537Z,3.03
2018-08-22T02:28:18.413Z,2.97
2018-08-22T02:30:47.363Z,3.60
2018-08-22T02:33:16.255Z,3.40
2018-08-22T02:35:45.138Z,3.57
2018-08-22T02:38:18.175Z,3.70
2018-08-22T02:40:47.069Z,3.80
2018-08-22T02:43:16.060Z,3.40
2018-08-22T02:45:45.012Z,3.40
2018-08-22T02:48:13.915Z,3.27
2018-08-22T02:50:42.811Z,3.23
2018-08-22T02:53:11.708Z,3.37
2018-08-22T02:55:40.968Z,3.40
2018-08-22T02:58:09.876Z,3.10
2018-08-22T03:00:38.790Z,3.10
2018-08-22T03:03:07.650Z,3.03
2018-08-22T03:05:36.537Z,2.80
2018-08-22T03:08:05.551Z,3.27
2018-08-22T03:10:34.517Z,3.20
2018-08-22T03:13:03.397Z,3.33
2018-08-22T03:15:32.325Z,3.10
2018-08-22T03:18:01.223Z,3.07
2018-08-22T03:20:30.161Z,3.10
2018-08-22T03:22:59.035Z,3.10
2018-08-22T03:25:28.013Z,3.50
2018-08-22T03:27:56.906Z,3.20
2018-08-22T03:30:26.839Z,3.43
2018-08-22T03:32:55.725Z,3.20
2018-08-22T03:35:24.611Z,3.20
2018-08-22T03:37:53.493Z,3.40
2018-08-22T03:40:22.365Z,3.07
2018-08-22T03:42:51.308Z,3.50
2018-08-22T03:45:20.283Z,3.20
2018-08-22T03:47:49.222Z,3.67
2018-08-22T03:50:18.189Z,3.53
2018-08-22T03:52:47.145Z,3.57
2018-08-22T03:55:16.077Z,3.37
2018-08-22T03:57:45.026Z,3.87
2018-08-22T04:00:13.938Z,3.80
2018-08-22T04:02:42.916Z,4.03
2018-08-22T04:05:12.855Z,3.57
2018-08-22T04:07:41.752Z,3.80
2018-08-22T04:10:10.695Z,3.90
2018-08-22T04:12:39.627Z,5.20
2018-08-22T04:15:09.556Z,3.93
2018-08-22T04:17:40.467Z,3.73
2018-08-22T04:20:09.861Z,3.70
2018-08-22T04:22:39.920Z,3.97
2018-08-22T04:25:09.352Z,4.10
2018-08-22T04:27:38.268Z,4.43
2018-08-22T04:30:07.501Z,4.40
2018-08-22T04:32:36.497Z,4.00
2018-08-22T04:35:05.525Z,3.97
2018-08-22T04:37:34.418Z,3.57
2018-08-22T04:40:03.347Z,4.10
2018-08-22T04:42:32.233Z,3.80
2018-08-22T04:45:01.105Z,3.90
2018-08-22T04:47:30.013Z,3.87
2018-08-22T04:49:58.855Z,3.40
2018-08-22T04:52:27.839Z,4.60
2018-08-22T04:54:56.828Z,4.40
2018-08-22T04:57:25.809Z,4.47
2018-08-22T04:59:54.782Z,4.10
2018-08-22T05:02:24.733Z,4.40
2018-08-22T05:04:53.783Z,4.60
2018-08-22T05:07:22.741Z,4.37
2018-08-22T05:09:51.649Z,4.40
2018-08-22T05:12:20.557Z,4.53
2018-08-22T05:14:50.263Z,4.43
2018-08-22T05:17:19.184Z,4.50
2018-08-22T05:19:48.133Z,4.83
2018-08-22T05:22:17.044Z,4.30
2018-08-22T05:24:46.007Z,4.13
2018-08-22T05:27:15.870Z,4.60
2018-08-22T05:29:44.774Z,4.53
2018-08-22T05:32:13.630Z,4.53
2018-08-22T05:34:42.561Z,4.33
2018-08-22T05:37:11.472Z,4.47
2018-08-22T05:39:40.408Z,5.17
2018-08-22T05:42:09.363Z,4.50
2018-08-22T05:44:38.240Z,4.67
2018-08-22T05:47:07.153Z,4.50
2018-08-22T05:49:36.020Z,5.03
2018-08-22T05:52:04.929Z,4.57
2018-08-22T05:54:33.841Z,5.00
2018-08-22T05:57:02.765Z,4.37
2018-08-22T05:59:31.652Z,4.57
2018-08-22T06:02:00.624Z,4.57
2018-08-22T06:04:29.486Z,4.30
2018-08-22T06:06:58.457Z,4.37
2018-08-22T06:09:27.492Z,4.53
2018-08-22T06:11:56.386Z,5.23
2018-08-22T06:14:25.279Z,4.90
2018-08-22T06:16:54.151Z,5.40
2018-08-22T06:19:23.129Z,5.10
2018-08-22T06:21:51.971Z,4.90
2018-08-22T06:24:20.884Z,4.60
2018-08-22T06:26:49.887Z,4.80
2018-08-22T06:29:18.775Z,4.87
2018-08-22T06:31:47.821Z,4.70
2018-08-22T06:34:16.749Z,4.60
2018-08-22T06:36:45.627Z,4.90
2018-08-22T06:39:14.494Z,4.80
2018-08-22T06:41:43.394Z,4.63
2018-08-22T06:44:12.278Z,4.60
2018-08-22T06:46:41.179Z,4.10
2018-08-22T06:49:10.050Z,4.23
2018-08-22T06:51:38.951Z,4.20
2018-08-22T06:54:08.016Z,4.13
2018-08-22T06:56:36.907Z,4.00
2018-08-22T06:59:05.795Z,3.80
2018-08-22T07:01:34.701Z,4.03
2018-08-22T07:04:03.807Z,3.60
2018-08-22T07:06:33.056Z,3.30
2018-08-22T07:09:01.937Z,4.10
2018-08-22T07:11:30.826Z,3.73
2018-08-22T07:13:59.786Z,3.70
2018-08-22T07:16:28.763Z,3.90
2018-08-22T07:18:57.670Z,3.77
2018-08-22T07:21:26.553Z,4.33
2018-08-22T07:23:55.461Z,3.73
2018-08-22T07:26:24.351Z,4.10
2018-08-22T07:28:53.237Z,4.27
2018-08-22T07:31:22.192Z,3.90
2018-08-22T07:33:51.195Z,4.10
2018-08-22T07:36:20.089Z,4.30
2018-08-22T07:38:49.043Z,4.03
2018-08-22T07:41:17.937Z,4.00
2018-08-22T07:43:46.872Z,4.10
2018-08-22T07:46:15.869Z,4.23
2018-08-22T07:48:44.791Z,3.90
2018-08-22T07:51:13.693Z,3.87
2018-08-22T07:53:42.599Z,4.10
2018-08-22T07:56:11.481Z,4.00
2018-08-22T07:58:40.381Z,3.90
2018-08-22T08:01:09.324Z,4.17
2018-08-22T08:03:38.228Z,4.10
2018-08-22T08:06:07.121Z,3.77
2018-08-22T08:08:36.063Z,4.97
2018-08-22T08:11:05.118Z,4.00
2018-08-22T08:13:33.969Z,3.70
2018-08-22T08:16:02.867Z,4.13
2018-08-22T08:18:31.911Z,4.07
2018-08-22T08:21:01.841Z,4.27
2018-08-22T08:23:30.913Z,4.17
2018-08-22T08:25:59.829Z,3.67
2018-08-22T08:28:28.917Z,4.17
2018-08-22T08:30:57.806Z,3.90
2018-08-22T08:33:26.805Z,4.00
2018-08-22T08:35:55.775Z,4.07
2018-08-22T08:38:24.728Z,4.40
2018-08-22T08:40:53.561Z,4.57
2018-08-22T08:43:22.508Z,4.20
2018-08-22T08:45:51.437Z,4.07
2018-08-22T08:48:20.323Z,4.20
2018-08-22T08:50:49.218Z,4.70
2018-08-22T08:53:18.170Z,4.50
2018-08-22T08:55:47.113Z,4.30
2018-08-22T08:58:16.019Z,4.73
2018-08-22T09:00:44.926Z,4.90
2018-08-22T09:03:13.852Z,4.00
2018-08-22T09:05:42.783Z,4.80
2018-08-22T09:08:11.658Z,6.83
2018-08-22T09:10:40.545Z,4.63
2018-08-22T09:13:10.795Z,3.73
2018-08-22T09:15:39.846Z,4.57
2018-08-22T09:18:08.717Z,4.93
2018-08-22T09:20:37.683Z,4.17
2018-08-22T09:23:06.693Z,4.40
2018-08-22T09:25:35.591Z,3.80
2018-08-22T09:28:04.605Z,4.07
2018-08-22T09:30:33.536Z,4.33
2018-08-22T09:33:02.448Z,4.40
2018-08-22T09:35:31.379Z,4.80
2018-08-22T09:38:00.307Z,4.60
2018-08-22T09:40:30.324Z,4.70
2018-08-22T09:42:59.246Z,4.57
2018-08-22T09:45:28.127Z,4.83
2018-08-22T09:47:57.030Z,4.63
2018-08-22T09:50:25.925Z,5.33
2018-08-22T09:52:54.789Z,4.97
2018-08-22T09:55:23.724Z,5.87
2018-08-22T09:57:52.658Z,5.27
2018-08-22T10:00:26.930Z,5.73
2018-08-22T10:02:55.811Z,6.00
2018-08-22T10:05:24.698Z,6.20
2018-08-22T10:07:53.654Z,5.20
2018-08-22T10:10:22.565Z,5.03
2018-08-22T10:12:51.522Z,4.83
2018-08-22T10:15:20.429Z,5.23
2018-08-22T10:17:49.352Z,5.77
2018-08-22T10:20:18.357Z,5.20
2018-08-22T10:22:47.307Z,5.70
2018-08-22T10:25:16.200Z,5.73
2018-08-22T10:27:45.102Z,6.03
2018-08-22T10:30:13.967Z,6.17
2018-08-22T10:32:42.914Z,6.10
2018-08-22T10:35:11.727Z,5.80
2018-08-22T10:37:40.673Z,6.53
2018-08-22T10:40:09.537Z,5.90
2018-08-22T10:42:38.449Z,6.60
2018-08-22T10:45:07.387Z,6.23
2018-08-22T10:47:36.281Z,7.27
2018-08-22T10:50:05.225Z,7.40
2018-08-22T10:52:34.214Z,6.77
2018-08-22T10:55:03.192Z,7.73
2018-08-22T10:57:32.091Z,8.27
2018-08-22T11:00:01.020Z,7.83
2018-08-22T11:02:29.965Z,7.27
2018-08-22T11:04:58.877Z,7.40
2018-08-22T11:07:27.777Z,8.63
2018-08-22T11:09:56.723Z,7.93
2018-08-22T11:12:25.567Z,8.37
2018-08-22T11:14:54.527Z,9.50
2018-08-22T11:17:23.425Z,9.13
2018-08-22T11:19:52.325Z,9.83
2018-08-22T11:22:32.425Z,9.13
2018-08-22T11:25:12.602Z,9.20
2018-08-22T11:27:52.692Z,8.87
2018-08-22T11:30:33.102Z,10.03
2018-08-22T11:33:13.281Z,9.87
2018-08-22T11:35:41.282Z,10.23
2018-08-22T11:38:10.959Z,10.10
2018-08-22T11:40:40.327Z,9.40
2018-08-22T11:43:09.626Z,8.77
2018-08-22T11:45:38.970Z,8.60
2018-08-22T11:48:08.328Z,9.73
2018-08-22T11:50:37.739Z,8.60
2018-08-22T11:53:07.079Z,9.50
2018-08-22T11:55:36.456Z,8.53
2018-08-22T11:58:05.800Z,8.27
2018-08-22T12:00:35.259Z,9.00
2018-08-22T12:03:04.161Z,8.00
2018-08-22T12:05:33.048Z,8.77
2018-08-22T12:08:01.955Z,10.27
2018-08-22T12:10:30.948Z,7.80
2018-08-22T12:13:01.462Z,9.07
2018-08-22T12:15:30.361Z,9.67
2018-08-22T12:17:59.451Z,9.63
2018-08-22T12:20:28.627Z,8.23
2018-08-22T12:22:57.543Z,9.30
2018-08-22T12:25:26.465Z,7.83
2018-08-22T12:27:55.328Z,7.67
2018-08-22T12:30:24.233Z,9.83
2018-08-22T12:32:53.136Z,9.20
2018-08-22T12:35:22.186Z,10.43
2018-08-22T12:37:51.110Z,8.33
2018-08-22T12:40:19.982Z,8.87
2018-08-22T12:42:48.867Z,9.33
2018-08-22T12:45:17.773Z,10.70
2018-08-22T12:47:46.813Z,10.37
2018-08-22T12:50:15.740Z,9.83
2018-08-22T12:52:44.678Z,10.83
2018-08-22T12:55:13.646Z,8.07
2018-08-22T12:57:42.650Z,8.43
2018-08-22T13:00:11.681Z,8.40
2018-08-22T13:02:40.632Z,7.63
2018-08-22T13:05:09.553Z,10.20
2018-08-22T13:07:38.464Z,10.53
2018-08-22T13:10:07.428Z,10.93
2018-08-22T13:12:36.447Z,9.47
2018-08-22T13:15:06.667Z,10.73
2018-08-22T13:17:35.624Z,10.20
2018-08-22T13:20:05.012Z,8.07
2018-08-22T13:22:33.895Z,9.17
2018-08-22T13:25:02.980Z,9.67
2018-08-22T13:27:31.893Z,10.40
2018-08-22T13:30:01.868Z,7.53
2018-08-22T13:32:30.866Z,8.40
2018-08-22T13:34:59.805Z,8.67
2018-08-22T13:37:28.784Z,9.77
2018-08-22T13:39:57.685Z,8.07
2018-08-22T13:42:26.653Z,8.80
2018-08-22T13:44:56.634Z,10.37
2018-08-22T13:47:25.547Z,9.27
2018-08-22T13:49:54.715Z,8.30
2018-08-22T13:52:24.713Z,9.87
2018-08-22T13:54:53.657Z,8.60
2018-08-22T13:57:22.595Z,9.10
2018-08-22T13:59:51.505Z,9.40
2018-08-22T14:02:20.432Z,11.17
2018-08-22T14:04:49.365Z,10.07
2018-08-22T14:07:18.287Z,9.13
2018-08-22T14:09:47.222Z,9.63
2018-08-22T14:12:16.081Z,8.30
2018-08-22T14:14:44.984Z,8.87
2018-08-22T14:17:13.901Z,7.03
2018-08-22T14:19:42.809Z,8.93
2018-08-22T14:22:11.828Z,7.87
2018-08-22T14:24:40.740Z,13.70
2018-08-22T14:27:09.669Z,10.90
2018-08-22T14:29:38.717Z,8.37
2018-08-22T14:32:07.658Z,9.20
2018-08-22T14:34:36.619Z,11.17
2018-08-22T14:37:05.768Z,8.30
2018-08-22T14:39:34.658Z,8.70
2018-08-22T14:42:03.568Z,9.30
2018-08-22T14:44:32.624Z,13.93
2018-08-22T14:47:01.510Z,13.30
2018-08-22T14:49:30.403Z,10.57
2018-08-22T14:51:59.487Z,11.47
2018-08-22T14:54:28.402Z,12.53
2018-08-22T14:56:57.402Z,13.47
2018-08-22T14:59:26.434Z,12.87
2018-08-22T15:01:55.480Z,10.83
2018-08-22T15:04:24.395Z,15.83
2018-08-22T15:06:53.411Z,13.57
2018-08-22T15:09:22.348Z,12.77
2018-08-22T15:11:52.270Z,18.03
2018-08-22T15:14:21.142Z,13.87
2018-08-22T15:16:51.138Z,15.30
2018-08-22T15:19:20.081Z,14.50
2018-08-22T15:21:48.980Z,16.23
2018-08-22T15:24:17.885Z,14.57
2018-08-22T15:26:46.954Z,14.20
2018-08-22T15:29:15.825Z,14.63
2018-08-22T15:31:44.738Z,12.40
2018-08-22T15:34:13.650Z,12.60
2018-08-22T15:36:42.581Z,15.77
2018-08-22T15:39:11.905Z,14.93
2018-08-22T15:41:41.841Z,13.13
2018-08-22T15:44:10.778Z,14.90
2018-08-22T15:46:39.695Z,14.07
2018-08-22T15:49:09.729Z,13.03
2018-08-22T15:51:39.955Z,21.00
2018-08-22T15:54:12.015Z,15.03
2018-08-22T15:56:41.745Z,15.13
2018-08-22T15:59:11.491Z,14.87
2018-08-22T16:01:41.529Z,18.37
2018-08-22T16:04:10.857Z,14.67
2018-08-22T16:06:39.751Z,14.13
2018-08-22T16:09:14.651Z,13.60
2018-08-22T16:11:44.061Z,15.93
2018-08-22T16:14:13.020Z,14.17
2018-08-22T16:16:41.961Z,15.03
2018-08-22T16:19:10.876Z,13.67
2018-08-22T16:21:39.903Z,13.73
2018-08-22T16:24:08.910Z,17.37
2018-08-22T16:26:38.766Z,15.93
2018-08-22T16:29:07.742Z,15.83
2018-08-22T16:31:41.872Z,13.80
2018-08-22T16:34:11.283Z,10.50
2018-08-22T16:36:41.007Z,11.60
2018-08-22T16:39:11.167Z,12.83
2018-08-22T16:41:40.347Z,12.20
2018-08-22T16:44:09.729Z,11.40
2018-08-22T16:46:39.224Z,12.53
2018-08-22T16:49:09.878Z,11.40
2018-08-22T16:51:38.859Z,11.47
2018-08-22T16:54:08.803Z,11.70
2018-08-22T16:56:37.885Z,9.83
2018-08-22T16:59:11.049Z,16.53
2018-08-22T17:01:41.606Z,12.77
2018-08-22T17:04:11.583Z,16.67
2018-08-22T17:06:40.489Z,15.93
2018-08-22T17:09:10.324Z,12.43
2018-08-22T17:11:39.277Z,18.13
2018-08-22T17:14:08.227Z,17.73
2018-08-22T17:16:37.197Z,19.77
2018-08-22T17:19:06.113Z,16.10
2018-08-22T17:21:37.148Z,18.27
2018-08-22T17:24:06.266Z,18.50
2018-08-22T17:26:36.259Z,13.77
2018-08-22T17:29:06.247Z,12.73
2018-08-22T17:31:35.259Z,12.90
2018-08-22T17:34:04.381Z,14.33
2018-08-22T17:36:33.332Z,15.57
2018-08-22T17:39:02.438Z,13.63
2018-08-22T17:41:31.437Z,16.03
2018-08-22T17:44:04.425Z,18.30
2018-08-22T17:46:37.317Z,15.77
2018-08-22T17:49:06.287Z,16.47
2018-08-22T17:51:46.054Z,14.20
2018-08-22T17:54:16.041Z,13.47
2018-08-22T17:56:44.921Z,11.80
2018-08-22T17:59:13.817Z,12.00
2018-08-22T18:01:42.767Z,12.97
2018-08-22T18:04:11.820Z,14.00
2018-08-22T18:06:40.759Z,16.17
2018-08-22T18:09:09.777Z,13.90
2018-08-22T18:11:38.708Z,11.93
2018-08-22T18:14:07.560Z,12.70
2018-08-22T18:16:36.475Z,13.20
2018-08-22T18:19:05.380Z,11.33
2018-08-22T18:21:38.509Z,11.80
2018-08-22T18:24:08.373Z,14.13
2018-08-22T18:26:37.371Z,13.60
2018-08-22T18:29:06.399Z,11.47
2018-08-22T18:31:35.345Z,13.63
2018-08-22T18:34:04.376Z,12.27
2018-08-22T18:36:33.356Z,12.27
2018-08-22T18:39:08.291Z,12.67
2018-08-22T18:41:37.572Z,12.80
2018-08-22T18:44:06.559Z,16.03
2018-08-22T18:46:35.594Z,13.63
2018-08-22T18:49:05.197Z,12.63
2018-08-22T18:51:34.648Z,14.87
2018-08-22T18:54:04.197Z,16.70
2018-08-22T18:56:33.109Z,15.83
2018-08-22T18:59:13.253Z,19.63
2018-08-22T19:01:42.228Z,18.00
2018-08-22T19:04:11.210Z,18.20
2018-08-22T19:06:40.201Z,16.57
2018-08-22T19:09:09.089Z,14.50
2018-08-22T19:11:38.163Z,16.20
2018-08-22T19:14:07.208Z,19.40
2018-08-22T19:16:36.081Z,16.80
2018-08-22T19:19:05.121Z,19.93
2018-08-22T19:21:34.065Z,19.47
2018-08-22T19:24:06.138Z,20.70
2018-08-22T19:26:35.205Z,19.73
2018-08-22T19:29:05.464Z,19.43
2018-08-22T19:31:35.277Z,19.17
2018-08-22T19:34:04.192Z,21.13
2018-08-22T19:36:33.126Z,18.33
2018-08-22T19:39:02.198Z,17.33
2018-08-22T19:41:33.501Z,22.17
2018-08-22T19:44:02.533Z,18.47
2018-08-22T19:46:32.490Z,23.10
2018-08-22T19:49:01.568Z,23.63
2018-08-22T19:51:31.714Z,21.07
2018-08-22T19:54:05.026Z,23.90
2018-08-22T19:56:34.002Z,18.53
2018-08-22T19:59:03.542Z,19.50
2018-08-22T20:01:33.967Z,21.03
2018-08-22T20:04:02.870Z,21.97
2018-08-22T20:06:31.802Z,20.77
2018-08-22T20:09:01.901Z,19.27
2018-08-22T20:11:33.447Z,20.87
2018-08-22T20:14:04.946Z,22.03
2018-08-22T20:16:33.845Z,20.83
2018-08-22T20:19:04.132Z,19.63
2018-08-22T20:21:34.327Z,19.37
2018-08-22T20:24:06.732Z,18.33
2018-08-22T20:26:36.901Z,19.23
2018-08-22T20:29:06.233Z,18.40
2018-08-22T20:31:36.144Z,17.57
2018-08-22T20:34:15.586Z,18.70
2018-08-22T20:36:47.101Z,20.80
2018-08-22T20:39:16.217Z,21.03
2018-08-22T20:41:45.483Z,19.43
2018-08-22T20:44:19.887Z,20.57
2018-08-22T20:46:49.271Z,21.27
2018-08-22T20:49:19.756Z,20.60
2018-08-22T20:51:48.959Z,20.43
2018-08-22T20:54:22.254Z,20.70
2018-08-22T20:56:56.474Z,21.87
2018-08-22T20:59:25.595Z,20.37
2018-08-22T21:02:04.427Z,21.40
2018-08-22T21:04:33.868Z,18.87
2018-08-22T21:07:03.055Z,19.63
2018-08-22T21:09:32.290Z,18.50
2018-08-22T21:12:01.609Z,21.10
2018-08-22T21:14:31.882Z,18.83
2018-08-22T21:17:01.234Z,18.17
2018-08-22T21:19:30.124Z,19.03
2018-08-22T21:21:59.067Z,18.60
2018-08-22T21:24:28.048Z,17.30
2018-08-22T21:26:56.913Z,20.23
2018-08-22T21:29:25.846Z,21.23
2018-08-22T21:31:54.733Z,21.80
2018-08-22T21:34:24.302Z,22.73
2018-08-22T21:36:53.194Z,27.87
2018-08-22T21:39:25.080Z,26.50
2018-08-22T21:41:54.111Z,25.23
2018-08-22T21:44:23.678Z,19.30
2018-08-22T21:46:59.692Z,25.03
2018-08-22T21:49:28.975Z,25.00
2018-08-22T21:52:00.035Z,25.87
2018-08-22T21:54:28.979Z,27.30
2018-08-22T21:56:57.946Z,26.13
2018-08-22T21:59:26.987Z,24.47
2018-08-22T22:02:01.163Z,23.53
2018-08-22T22:04:33.908Z,25.20
2018-08-22T22:07:03.809Z,25.97
2018-08-22T22:09:32.988Z,25.00
2018-08-22T22:12:02.491Z,25.70
2018-08-22T22:14:36.231Z,25.53
2018-08-22T22:17:05.852Z,20.67
2018-08-22T22:19:35.807Z,21.00
2018-08-22T22:22:04.954Z,20.77
2018-08-22T22:24:39.032Z,19.80
2018-08-22T22:27:08.989Z,19.40
2018-08-22T22:29:38.921Z,20.13
2018-08-22T22:32:08.010Z,19.33
2018-08-22T22:34:36.875Z,18.50
2018-08-22T22:37:05.995Z,19.20
2018-08-22T22:39:44.895Z,19.93
2018-08-22T22:42:19.172Z,19.27
2018-08-22T22:44:49.453Z,18.33
2018-08-22T22:47:23.520Z,19.03
2018-08-22T22:49:52.520Z,19.20
2018-08-22T22:52:29.630Z,19.77
2018-08-22T22:54:59.827Z,20.47
2018-08-22T22:57:30.397Z,19.20
2018-08-22T22:59:59.606Z,18.40
2018-08-22T23:02:28.898Z,18.57
2018-08-22T23:04:58.552Z,19.10
2018-08-22T23:07:28.629Z,19.63
2018-08-22T23:09:59.780Z,18.90
2018-08-22T23:12:46.871Z,19.07
2018-08-22T23:15:19.173Z,20.43
2018-08-22T23:17:49.789Z,20.00
2018-08-22T23:20:26.094Z,18.87
2018-08-22T23:22:55.373Z,18.83
2018-08-22T23:25:24.524Z,19.60
2018-08-22T23:27:53.837Z,18.93
2018-08-22T23:30:28.003Z,19.73
2018-08-22T23:32:57.001Z,19.77
2018-08-22T23:35:27.553Z,20.37
2018-08-22T23:37:57.498Z,20.37
2018-08-22T23:40:27.481Z,21.80
2018-08-22T23:42:56.582Z,21.40
2018-08-22T23:45:25.588Z,22.20
2018-08-22T23:47:54.545Z,22.43
2018-08-22T23:50:23.475Z,21.83
2018-08-22T23:52:53.953Z,22.67
2018-08-22T23:55:23.715Z,23.57
2018-08-22T23:57:54.303Z,24.23
